KBDN

Bend Municipal Airport

Bend, Oregon, USA
METAR KBDN 251455Z AUTO 17004KT 8SM CLR 04/M03 A3028 RMK AO2
Observed Flight Rules
Sep-25 @ 14:55 UTC (23 minutes ago) Visual Flight Rules
Wind Visibility Clouds
170° at 4 knots 8 miles
  • Clear skies
Temperatures Readings
Current 4°C / 39°F
Dewpoint -3°C / 27°F
Humidity 61%
Altimeter 30.28" Hg
Pressure 1025 hPa
Elevation 1055
METAR KBDN 251455Z AUTO 17004KT 8SM CLR 04/M03 A3028 RMK AO2
Observed Flight Rules
Sep-25 @ 14:55 UTC
(23 minutes ago)
VFR
Wind Visibility
170° at 4 knots 8 miles
Clouds
  • Clear skies
Temperature Dewpoint
4°C / 39°F -3°C / 27°F
Humidity Altimeter Pressure
61% 30.28" Hg 1025 hPa